createdAt,value
2022-07-28T00:00:45.057Z,101453.56
2022-07-28T00:03:11.455Z,101470.88
2022-07-28T00:05:37.879Z,101452.81
2022-07-28T00:08:04.430Z,101456.44
2022-07-28T00:10:32.176Z,101462.22
2022-07-28T00:12:59.822Z,101459.34
2022-07-28T00:15:26.462Z,101469.38
2022-07-28T00:17:52.823Z,101465.09
2022-07-28T00:20:19.231Z,101469.38
2022-07-28T00:22:45.582Z,101466.50
2022-07-28T00:25:11.938Z,101457.81
2022-07-28T00:27:38.374Z,101463.59
2022-07-28T00:30:05.629Z,101462.22
2022-07-28T00:32:32.186Z,101463.59
2022-07-28T00:34:58.613Z,101462.22
2022-07-28T00:37:24.982Z,101469.38
2022-07-28T00:39:52.621Z,101466.50
2022-07-28T00:42:19.441Z,101463.59
2022-07-28T00:44:45.812Z,101467.91
2022-07-28T00:47:12.297Z,101462.84
2022-07-28T00:49:38.717Z,101462.84
2022-07-28T00:52:05.604Z,101462.13
2022-07-28T00:54:32.343Z,101467.91
2022-07-28T00:56:58.722Z,101467.91
2022-07-28T00:59:25.238Z,101470.78
2022-07-28T01:01:53.237Z,101466.38
2022-07-28T01:04:19.892Z,101472.16
2022-07-28T01:06:54.911Z,101467.72
2022-07-28T01:09:39.871Z,101474.91
2022-07-28T01:12:24.613Z,101485.03
2022-07-28T01:15:03.169Z,101476.38
2022-07-28T01:17:33.103Z,101474.91
2022-07-28T01:20:09.534Z,101476.47
2022-07-28T01:22:38.380Z,101479.34
2022-07-28T01:25:07.471Z,101473.59
2022-07-28T01:27:42.965Z,101476.47
2022-07-28T01:30:28.039Z,101480.09
2022-07-28T01:33:15.387Z,101482.97
2022-07-28T01:35:42.728Z,101473.69
2022-07-28T01:38:09.080Z,101480.84
2022-07-28T01:40:35.621Z,101474.31
2022-07-28T01:43:02.836Z,101479.34
2022-07-28T01:45:29.437Z,101474.31
2022-07-28T01:47:55.921Z,101485.03
2022-07-28T01:50:23.003Z,101487.81
2022-07-28T01:52:49.406Z,101482.78
2022-07-28T01:55:17.242Z,101477.00
2022-07-28T01:57:43.612Z,101473.38
2022-07-28T02:00:10.899Z,101469.03
2022-07-28T02:02:40.684Z,101474.91
2022-07-28T02:05:07.982Z,101465.47
2022-07-28T02:07:34.423Z,101468.34
2022-07-28T02:10:00.779Z,101469.75
2022-07-28T02:12:27.133Z,101470.50
2022-07-28T02:14:53.492Z,101464.72
2022-07-28T02:17:20.695Z,101467.50
2022-07-28T02:19:48.138Z,101467.63
2022-07-28T02:22:14.666Z,101464.72
2022-07-28T02:24:41.023Z,101461.84
2022-07-28T02:27:11.790Z,101462.50
2022-07-28T02:29:50.651Z,101467.50
2022-07-28T02:32:27.444Z,101466.78
2022-07-28T02:34:55.667Z,101471.81
2022-07-28T02:37:22.669Z,101464.53
2022-07-28T02:39:58.751Z,101468.84
2022-07-28T02:42:27.089Z,101473.13
2022-07-28T02:44:57.436Z,101470.97
2022-07-28T02:47:24.486Z,101473.88
2022-07-28T02:49:50.844Z,101470.13
2022-07-28T02:52:17.275Z,101478.91
2022-07-28T02:54:43.638Z,101480.28
2022-07-28T02:57:10.003Z,101478.13
2022-07-28T02:59:37.335Z,101486.06
2022-07-28T03:02:03.807Z,101493.25
2022-07-28T03:04:49.158Z,101487.47
2022-07-28T03:07:15.562Z,101485.22
2022-07-28T03:09:42.475Z,101491.00
2022-07-28T03:12:11.685Z,101484.47
2022-07-28T03:14:38.060Z,101482.97
2022-07-28T03:17:04.484Z,101488.00
2022-07-28T03:19:30.943Z,101493.03
2022-07-28T03:21:57.298Z,101487.91
2022-07-28T03:24:24.283Z,101495.84
2022-07-28T03:26:57.733Z,101501.59
2022-07-28T03:29:24.097Z,101509.53
2022-07-28T03:31:50.457Z,101508.78
2022-07-28T03:34:17.252Z,101515.94
2022-07-28T03:36:44.449Z,101514.38
2022-07-28T03:39:11.917Z,101515.84
2022-07-28T03:41:38.586Z,101515.84
2022-07-28T03:44:05.058Z,101515.09
2022-07-28T03:46:31.449Z,101510.75
2022-07-28T03:48:58.172Z,101512.84
2022-07-28T03:51:25.568Z,101515.75
2022-07-28T03:53:51.925Z,101514.28
2022-07-28T03:56:18.285Z,101514.28
2022-07-28T03:58:44.637Z,101521.53
2022-07-28T04:01:11.109Z,101527.97
2022-07-28T04:03:43.988Z,101522.81
2022-07-28T04:06:13.618Z,101532.88
2022-07-28T04:08:39.988Z,101537.16
2022-07-28T04:11:06.364Z,101540.78
2022-07-28T04:13:32.713Z,101542.94
2022-07-28T04:15:59.427Z,101537.16
2022-07-28T04:18:25.798Z,101527.03
2022-07-28T04:20:52.195Z,101529.91
2022-07-28T04:23:20.527Z,101532.78
2022-07-28T04:25:46.873Z,101534.16
2022-07-28T04:28:13.236Z,101532.69
2022-07-28T04:30:44.259Z,101526.16
2022-07-28T04:33:11.264Z,101533.44
2022-07-28T04:35:37.892Z,101538.47
2022-07-28T04:38:04.302Z,101539.94
2022-07-28T04:40:30.655Z,101534.81
2022-07-28T04:42:57.019Z,101541.25
2022-07-28T04:45:23.399Z,101535.47
2022-07-28T04:47:49.825Z,101546.34
2022-07-28T04:50:18.910Z,101549.25
2022-07-28T04:52:48.422Z,101550.66
2022-07-28T04:55:14.774Z,101554.94
2022-07-28T04:57:41.138Z,101547.03
2022-07-28T05:00:13.264Z,101546.28
2022-07-28T05:02:43.077Z,101542.63
2022-07-28T05:05:09.886Z,101543.41
2022-07-28T05:07:36.684Z,101547.47
2022-07-28T05:10:03.339Z,101553.63
2022-07-28T05:12:29.735Z,101547.06
2022-07-28T05:14:56.115Z,101552.91
2022-07-28T05:17:22.529Z,101557.91
2022-07-28T05:19:48.898Z,101561.91
2022-07-28T05:22:15.261Z,101561.72
2022-07-28T05:24:41.633Z,101560.69
2022-07-28T05:27:07.999Z,101559.28
2022-07-28T05:29:46.724Z,101553.31
2022-07-28T05:32:16.367Z,101562.22
2022-07-28T05:34:43.258Z,101557.25
2022-07-28T05:37:09.644Z,101556.53
2022-07-28T05:39:36.201Z,101560.09
2022-07-28T05:42:02.565Z,101560.78
2022-07-28T05:44:28.917Z,101563.88
2022-07-28T05:46:55.358Z,101558.91
2022-07-28T05:49:23.734Z,101565.50
2022-07-28T05:51:50.211Z,101574.38
2022-07-28T05:54:16.980Z,101577.56
2022-07-28T05:56:47.104Z,101580.56
2022-07-28T05:59:16.466Z,101576.75
2022-07-28T06:01:42.946Z,101579.84
2022-07-28T06:04:26.662Z,101577.19
2022-07-28T06:06:54.521Z,101581.06
2022-07-28T06:09:20.930Z,101585.94
2022-07-28T06:11:47.376Z,101579.88
2022-07-28T06:14:14.019Z,101579.44
2022-07-28T06:16:40.662Z,101582.78
2022-07-28T06:19:07.083Z,101582.50
2022-07-28T06:21:33.450Z,101583.66
2022-07-28T06:23:59.847Z,101585.81
2022-07-28T06:26:26.220Z,101585.22
2022-07-28T06:28:52.612Z,101584.75
2022-07-28T06:31:19.082Z,101587.75
2022-07-28T06:33:45.470Z,101580.06
2022-07-28T06:36:11.833Z,101584.59
2022-07-28T06:38:38.249Z,101577.03
2022-07-28T06:41:04.620Z,101581.03
2022-07-28T06:43:31.104Z,101583.88
2022-07-28T06:45:58.708Z,101582.34
2022-07-28T06:48:29.133Z,101576.41
2022-07-28T06:50:58.352Z,101590.50
2022-07-28T06:53:24.776Z,101579.34
2022-07-28T06:55:54.489Z,101580.16
2022-07-28T06:58:20.910Z,101579.34
2022-07-28T07:00:47.321Z,101580.59
2022-07-28T07:03:13.718Z,101586.59
2022-07-28T07:05:40.093Z,101578.53
2022-07-28T07:08:06.451Z,101577.34
2022-07-28T07:10:32.840Z,101578.53
2022-07-28T07:12:59.219Z,101570.50
2022-07-28T07:15:25.574Z,101567.91
2022-07-28T07:17:54.090Z,101575.72
2022-07-28T07:20:20.460Z,101576.22
2022-07-28T07:22:46.881Z,101573.03
2022-07-28T07:25:13.905Z,101575.50
2022-07-28T07:27:40.287Z,101580.78
2022-07-28T07:30:06.967Z,101576.47
2022-07-28T07:32:33.333Z,101568.22
2022-07-28T07:34:59.691Z,101574.63
2022-07-28T07:37:26.097Z,101571.00
2022-07-28T07:39:52.452Z,101571.63
2022-07-28T07:42:18.831Z,101570.47
2022-07-28T07:44:50.217Z,101575.94
2022-07-28T07:47:16.938Z,101580.97
2022-07-28T07:49:46.221Z,101578.53
2022-07-28T07:52:13.168Z,101575.44
2022-07-28T07:54:39.529Z,101578.06
2022-07-28T07:57:05.908Z,101577.31
2022-07-28T07:59:32.253Z,101572.00
2022-07-28T08:01:58.643Z,101576.34
2022-07-28T08:04:25.288Z,101579.25
2022-07-28T08:06:51.904Z,101577.94
2022-07-28T08:09:18.488Z,101568.97
2022-07-28T08:11:44.854Z,101569.22
2022-07-28T08:14:11.496Z,101566.84
2022-07-28T08:16:38.056Z,101571.13
2022-07-28T08:19:04.461Z,101575.94
2022-07-28T08:21:32.478Z,101574.16
2022-07-28T08:23:58.903Z,101570.41
2022-07-28T08:26:25.315Z,101572.03
2022-07-28T08:28:51.783Z,101567.13
2022-07-28T08:31:21.704Z,101568.84
2022-07-28T08:33:54.271Z,101568.13
2022-07-28T08:36:21.352Z,101571.13
2022-07-28T08:38:47.732Z,101571.66
2022-07-28T08:41:16.780Z,101579.56
2022-07-28T08:43:43.590Z,101582.66
2022-07-28T08:46:09.998Z,101577.63
2022-07-28T08:48:37.803Z,101585.38
2022-07-28T08:51:05.055Z,101584.78
2022-07-28T08:53:31.536Z,101573.88
2022-07-28T08:56:12.129Z,101582.75
2022-07-28T08:58:38.525Z,101577.94
2022-07-28T09:01:05.484Z,101577.56
2022-07-28T09:03:31.933Z,101568.84
2022-07-28T09:05:58.336Z,101570.44
2022-07-28T09:08:24.700Z,101576.78
2022-07-28T09:10:51.089Z,101576.00
2022-07-28T09:13:17.713Z,101574.47
2022-07-28T09:15:46.083Z,101564.44
2022-07-28T09:18:13.602Z,101562.50
2022-07-28T09:20:40.081Z,101566.72
2022-07-28T09:23:43.433Z,101561.94
2022-07-28T09:26:10.244Z,101567.63
2022-07-28T09:28:50.426Z,101571.16
2022-07-28T09:31:17.228Z,101572.44
2022-07-28T09:33:56.940Z,101567.59
2022-07-28T09:36:23.545Z,101570.81
2022-07-28T09:38:49.931Z,101566.66
2022-07-28T09:41:19.009Z,101563.78
2022-07-28T09:43:46.323Z,101570.38
2022-07-28T09:46:14.243Z,101566.75
2022-07-28T09:48:49.796Z,101571.00
2022-07-28T09:51:31.904Z,101562.50
2022-07-28T09:54:11.173Z,101561.97
2022-07-28T09:56:38.132Z,101557.91
2022-07-28T09:59:04.493Z,101561.19
2022-07-28T10:01:35.134Z,101572.75
2022-07-28T10:04:03.384Z,101558.50
2022-07-28T10:06:29.722Z,101558.09
2022-07-28T10:08:56.732Z,101557.13
2022-07-28T10:11:24.726Z,101561.06
2022-07-28T10:14:02.607Z,101545.88
2022-07-28T10:16:32.489Z,101546.91
2022-07-28T10:18:59.657Z,101541.78
2022-07-28T10:21:26.096Z,101540.97
2022-07-28T10:23:53.474Z,101544.13
2022-07-28T10:26:20.629Z,101535.19
2022-07-28T10:28:48.143Z,101545.72
2022-07-28T10:31:14.965Z,101550.81
2022-07-28T10:33:44.114Z,101557.38
2022-07-28T10:36:10.473Z,101547.41
2022-07-28T10:38:36.962Z,101546.25
2022-07-28T10:41:03.846Z,101549.06
2022-07-28T10:43:31.820Z,101552.25
2022-07-28T10:46:08.151Z,101546.28
2022-07-28T10:48:36.734Z,101538.66
2022-07-28T10:51:03.155Z,101532.34
2022-07-28T10:53:38.150Z,101538.63
2022-07-28T10:56:07.489Z,101536.44
2022-07-28T10:58:36.756Z,101550.41
2022-07-28T11:01:06.422Z,101539.00
2022-07-28T11:03:59.580Z,101543.16
2022-07-28T11:06:35.718Z,101536.38
2022-07-28T11:09:16.782Z,101535.94
2022-07-28T11:11:43.222Z,101532.38
2022-07-28T11:14:25.670Z,101530.34
2022-07-28T11:17:01.036Z,101523.81
2022-07-28T11:19:51.608Z,101527.84
2022-07-28T11:22:34.870Z,101526.63
2022-07-28T11:25:21.054Z,101522.31
2022-07-28T11:27:51.129Z,101529.59
2022-07-28T11:30:33.477Z,101520.84
2022-07-28T11:33:00.082Z,101517.47
2022-07-28T11:35:26.721Z,101517.66
2022-07-28T11:38:02.439Z,101513.56
2022-07-28T11:40:32.427Z,101519.34
2022-07-28T11:43:17.499Z,101507.97
2022-07-28T11:45:52.590Z,101504.81
2022-07-28T11:48:22.480Z,101500.44
2022-07-28T11:51:03.930Z,101501.34
2022-07-28T11:53:34.498Z,101510.38
2022-07-28T11:56:03.948Z,101499.66
2022-07-28T11:58:30.318Z,101506.81
2022-07-28T12:01:13.282Z,101502.59
2022-07-28T12:03:50.430Z,101493.13
2022-07-28T12:06:28.735Z,101495.00
2022-07-28T12:09:00.186Z,101498.09
2022-07-28T12:11:27.020Z,101493.41
2022-07-28T12:13:59.491Z,101495.53
2022-07-28T12:16:26.489Z,101497.88
2022-07-28T12:18:53.158Z,101498.16
2022-07-28T12:21:46.343Z,101487.34
2022-07-28T12:24:19.132Z,101487.56
2022-07-28T12:26:49.213Z,101483.69
2022-07-28T12:29:16.277Z,101483.69
2022-07-28T12:31:56.198Z,101486.56
2022-07-28T12:34:24.298Z,101478.22
2022-07-28T12:36:56.973Z,101488.13
2022-07-28T12:39:25.517Z,101487.72
2022-07-28T12:41:59.354Z,101477.66
2022-07-28T12:44:31.731Z,101481.94
2022-07-28T12:46:58.186Z,101480.66
2022-07-28T12:49:24.663Z,101477.38
2022-07-28T12:51:51.063Z,101471.50
2022-07-28T12:54:17.845Z,101467.19
2022-07-28T12:56:50.814Z,101463.19
2022-07-28T12:59:18.660Z,101467.75
2022-07-28T13:01:44.967Z,101470.19
2022-07-28T13:04:12.984Z,101464.50
2022-07-28T13:06:40.635Z,101469.25
2022-07-28T13:09:07.170Z,101462.16
2022-07-28T13:11:47.145Z,101459.94
2022-07-28T13:14:14.154Z,101456.31
2022-07-28T13:16:40.757Z,101458.00
2022-07-28T13:19:08.836Z,101454.53
2022-07-28T13:21:41.098Z,101452.38
2022-07-28T13:24:23.920Z,101451.97
2022-07-28T13:26:50.291Z,101446.19
2022-07-28T13:29:16.659Z,101444.69
2022-07-28T13:31:43.066Z,101446.00
2022-07-28T13:34:09.647Z,101446.91
2022-07-28T13:36:36.145Z,101444.13
2022-07-28T13:39:02.517Z,101445.31
2022-07-28T13:41:28.886Z,101439.59
2022-07-28T13:44:15.672Z,101437.19
2022-07-28T13:46:47.343Z,101433.66
2022-07-28T13:49:16.556Z,101442.41
2022-07-28T13:51:43.137Z,101441.06
2022-07-28T13:54:09.490Z,101434.28
2022-07-28T13:56:36.808Z,101434.38
2022-07-28T13:59:03.163Z,101435.22
2022-07-28T14:01:33.619Z,101437.38
2022-07-28T14:04:01.567Z,101434.56
2022-07-28T14:06:28.523Z,101431.66
2022-07-28T14:08:55.023Z,101439.59
2022-07-28T14:11:22.990Z,101427.31
2022-07-28T14:13:52.082Z,101420.75
2022-07-28T14:16:19.337Z,101420.75
2022-07-28T14:18:45.964Z,101419.28
2022-07-28T14:21:12.515Z,101420.06
2022-07-28T14:23:38.882Z,101412.41
2022-07-28T14:26:33.320Z,101410.50
2022-07-28T14:28:51.586Z,101414.41
2022-07-28T14:31:18.106Z,101412.38
2022-07-28T14:33:49.514Z,101405.25
2022-07-28T14:36:18.765Z,101403.09
2022-07-28T14:38:54.635Z,101410.88
2022-07-28T14:41:21.294Z,101389.31
2022-07-28T14:43:47.832Z,101391.44
2022-07-28T14:46:19.195Z,101402.53
2022-07-28T14:48:47.912Z,101402.09
2022-07-28T14:51:14.402Z,101390.59
2022-07-28T14:53:49.737Z,101397.00
2022-07-28T14:56:18.070Z,101393.19
2022-07-28T14:58:44.458Z,101380.28
2022-07-28T15:01:10.817Z,101374.50
2022-07-28T15:03:37.417Z,101388.31
2022-07-28T15:06:03.830Z,101386.72
2022-07-28T15:08:30.238Z,101383.25
2022-07-28T15:10:57.182Z,101374.66
2022-07-28T15:13:23.548Z,101373.88
2022-07-28T15:15:49.938Z,101375.28
2022-07-28T15:18:16.395Z,101380.91
2022-07-28T15:20:43.434Z,101376.22
2022-07-28T15:23:10.973Z,101380.69
2022-07-28T15:25:37.786Z,101377.94
2022-07-28T15:28:04.445Z,101373.50
2022-07-28T15:30:30.802Z,101369.25
2022-07-28T15:32:59.115Z,101372.16
2022-07-28T15:35:26.097Z,101364.56
2022-07-28T15:37:52.481Z,101367.97
2022-07-28T15:40:18.834Z,101374.41
2022-07-28T15:42:45.200Z,101368.56
2022-07-28T15:45:11.558Z,101368.28
2022-07-28T15:47:37.925Z,101367.53
2022-07-28T15:50:04.367Z,101362.34
2022-07-28T15:52:30.727Z,101363.66
2022-07-28T15:54:57.106Z,101356.41
2022-07-28T15:57:23.479Z,101369.03
2022-07-28T15:59:50.863Z,101361.75
2022-07-28T16:02:18.011Z,101356.56
2022-07-28T16:04:52.190Z,101355.53
2022-07-28T16:07:23.364Z,101355.69
2022-07-28T16:09:50.538Z,101363.72
2022-07-28T16:12:16.888Z,101360.94
2022-07-28T16:14:43.255Z,101364.09
2022-07-28T16:17:10.382Z,101355.84
2022-07-28T16:19:49.117Z,101357.41
2022-07-28T16:22:16.500Z,101355.19
2022-07-28T16:24:42.926Z,101358.81
2022-07-28T16:27:09.285Z,101354.44
2022-07-28T16:29:35.647Z,101359.41
2022-07-28T16:32:04.501Z,101364.38
2022-07-28T16:34:30.882Z,101354.88
2022-07-28T16:36:57.254Z,101365.66
2022-07-28T16:39:23.609Z,101364.94
2022-07-28T16:41:50.483Z,101360.47
2022-07-28T16:44:17.293Z,101361.97
2022-07-28T16:46:44.184Z,101359.75
2022-07-28T16:49:10.695Z,101369.91
2022-07-28T16:51:37.138Z,101372.06
2022-07-28T16:54:03.529Z,101366.28
2022-07-28T16:56:29.883Z,101363.28
2022-07-28T16:59:00.343Z,101356.00
2022-07-28T17:01:26.759Z,101357.41
2022-07-28T17:03:53.140Z,101360.31
2022-07-28T17:06:19.500Z,101360.31
2022-07-28T17:08:45.893Z,101359.53
2022-07-28T17:11:12.244Z,101361.88
2022-07-28T17:13:42.144Z,101367.56
2022-07-28T17:16:11.562Z,101366.84
2022-07-28T17:18:38.023Z,101360.31
2022-07-28T17:21:04.396Z,101367.47
2022-07-28T17:23:30.757Z,101367.41
2022-07-28T17:27:11.901Z,101361.63
2022-07-28T17:28:51.070Z,101365.91
2022-07-28T17:31:17.466Z,101362.91
2022-07-28T17:33:43.963Z,101370.22
2022-07-28T17:36:10.324Z,101368.78
2022-07-28T17:38:36.695Z,101367.22
2022-07-28T17:41:07.537Z,101362.84
2022-07-28T17:43:34.825Z,101370.03
2022-07-28T17:46:02.875Z,101364.16
2022-07-28T17:48:34.844Z,101374.91
2022-07-28T17:51:01.216Z,101365.97
2022-07-28T17:53:28.406Z,101366.56
2022-07-28T17:56:00.758Z,101368.38
2022-07-28T17:58:33.879Z,101373.41
2022-07-28T18:01:10.208Z,101367.72
2022-07-28T18:03:57.044Z,101373.31
2022-07-28T18:06:26.716Z,101375.56
2022-07-28T18:08:53.252Z,101366.03
2022-07-28T18:11:19.614Z,101364.41
2022-07-28T18:14:04.158Z,101360.13
2022-07-28T18:16:31.901Z,101364.06
2022-07-28T18:18:58.283Z,101365.44
2022-07-28T18:21:26.413Z,101366.88
2022-07-28T18:23:52.834Z,101373.13
2022-07-28T18:26:21.801Z,101365.78
2022-07-28T18:28:48.235Z,101362.78
2022-07-28T18:31:14.650Z,101367.09
2022-07-28T18:33:41.112Z,101373.59
2022-07-28T18:36:07.472Z,101364.13
2022-07-28T18:38:33.840Z,101360.41
2022-07-28T18:41:00.906Z,101360.47
2022-07-28T18:46:31.876Z,101358.97
2022-07-28T18:48:58.370Z,101354.22
2022-07-28T18:51:25.625Z,101364.44
2022-07-28T18:53:52.143Z,101363.16
2022-07-28T18:56:18.502Z,101359.59
2022-07-28T18:58:44.881Z,101361.09
2022-07-28T19:01:13.340Z,101362.47
2022-07-28T19:03:40.012Z,101366.09
2022-07-28T19:06:06.369Z,101364.63
2022-07-28T19:08:32.764Z,101360.91
2022-07-28T19:10:59.119Z,101371.13
2022-07-28T19:13:25.477Z,101373.84
2022-07-28T19:15:51.918Z,101373.13
2022-07-28T19:18:18.337Z,101369.66
2022-07-28T19:20:44.755Z,101365.53
2022-07-28T19:23:11.341Z,101371.31
2022-07-28T19:25:40.847Z,101368.53
2022-07-28T19:28:07.218Z,101372.78
2022-07-28T19:30:33.771Z,101374.31
2022-07-28T19:33:00.313Z,101374.13
2022-07-28T19:35:26.738Z,101370.59
2022-07-28T19:37:53.219Z,101370.59
2022-07-28T19:40:19.677Z,101374.53
2022-07-28T19:42:48.218Z,101377.00
2022-07-28T19:45:14.650Z,101369.84
2022-07-28T19:47:42.168Z,101377.84
2022-07-28T19:50:08.598Z,101377.09
2022-07-28T19:52:34.957Z,101380.00
2022-07-28T19:55:04.215Z,101389.41
2022-07-28T19:57:31.454Z,101388.66
2022-07-28T19:59:58.822Z,101388.66
2022-07-28T20:02:25.217Z,101394.44
2022-07-28T20:04:51.638Z,101394.44
2022-07-28T20:07:18.009Z,101394.44
2022-07-28T20:09:44.372Z,101399.47
2022-07-28T20:12:10.798Z,101394.44
2022-07-28T20:14:37.192Z,101392.97
2022-07-28T20:17:03.614Z,101395.84
2022-07-28T20:19:30.131Z,101397.97
2022-07-28T20:21:57.157Z,101398.75
2022-07-28T20:24:23.980Z,101408.78
2022-07-28T20:26:50.360Z,101402.28
2022-07-28T20:29:16.733Z,101405.16
2022-07-28T20:31:43.085Z,101407.31
2022-07-28T20:34:12.750Z,101401.53
2022-07-28T20:36:39.516Z,101411.59
2022-07-28T20:39:27.518Z,101405.81
2022-07-28T20:41:52.237Z,101407.97
2022-07-28T20:44:28.794Z,101405.81
2022-07-28T20:46:58.350Z,101411.59
2022-07-28T20:49:24.801Z,101406.56
2022-07-28T20:51:51.479Z,101410.13
2022-07-28T20:54:18.806Z,101408.59
2022-07-28T20:56:45.299Z,101408.59
2022-07-28T20:59:11.667Z,101405.63
2022-07-28T21:01:38.105Z,101407.13
2022-07-28T21:04:04.570Z,101409.94
2022-07-28T21:06:31.654Z,101412.81
2022-07-28T21:09:00.554Z,101421.56
2022-07-28T21:11:26.905Z,101410.66
2022-07-28T21:13:53.270Z,101412.81
2022-07-28T21:16:19.691Z,101408.47
2022-07-28T21:18:46.086Z,101416.44
2022-07-28T21:21:12.450Z,101423.63
2022-07-28T21:23:38.818Z,101420.00
2022-07-28T21:26:11.245Z,101423.63
2022-07-28T21:28:56.062Z,101425.78
2022-07-28T21:31:22.615Z,101425.78
2022-07-28T21:33:49.004Z,101421.41
2022-07-28T21:36:15.365Z,101425.03
2022-07-28T21:38:41.733Z,101423.53
2022-07-28T21:41:08.102Z,101425.69
2022-07-28T21:43:34.539Z,101422.81
2022-07-28T21:46:00.960Z,101424.94
2022-07-28T21:48:27.355Z,101432.84
2022-07-28T21:50:53.752Z,101425.59
2022-07-28T21:53:20.121Z,101432.84
2022-07-28T21:55:46.485Z,101432.84
2022-07-28T21:58:12.850Z,101435.75
2022-07-28T22:00:39.364Z,101437.16
2022-07-28T22:03:05.815Z,101437.91
2022-07-28T22:05:32.195Z,101437.16
2022-07-28T22:07:58.554Z,101442.94
2022-07-28T22:10:24.986Z,101437.16
2022-07-28T22:12:51.356Z,101448.72
2022-07-28T22:15:17.724Z,101447.97
2022-07-28T22:17:44.084Z,101448.72
2022-07-28T22:20:10.652Z,101441.44
2022-07-28T22:22:37.017Z,101441.44
2022-07-28T22:25:03.429Z,101446.38
2022-07-28T22:27:29.797Z,101445.72
2022-07-28T22:29:56.198Z,101451.50
2022-07-28T22:32:28.626Z,101457.28
2022-07-28T22:34:55.927Z,101455.03
2022-07-28T22:37:22.287Z,101454.31
2022-07-28T22:39:48.663Z,101460.81
2022-07-28T22:42:15.014Z,101458.59
2022-07-28T22:44:41.385Z,101459.34
2022-07-28T22:47:07.754Z,101467.28
2022-07-28T22:49:34.118Z,101461.50
2022-07-28T22:52:00.534Z,101462.88
2022-07-28T22:54:26.910Z,101470.16
2022-07-28T22:56:53.277Z,101463.63
2022-07-28T22:59:19.642Z,101468.66
2022-07-28T23:01:47.815Z,101474.44
2022-07-28T23:04:14.814Z,101486.00
2022-07-28T23:06:42.072Z,101480.94
2022-07-28T23:09:08.461Z,101470.81
2022-07-28T23:11:34.858Z,101474.44
2022-07-28T23:14:01.288Z,101478.63
2022-07-28T23:16:27.691Z,101471.44
2022-07-28T23:18:54.080Z,101471.44
2022-07-28T23:21:20.438Z,101475.84
2022-07-28T23:23:46.839Z,101484.50
2022-07-28T23:26:13.193Z,101481.63
2022-07-28T23:28:39.581Z,101480.22
2022-07-28T23:31:06.001Z,101477.22
2022-07-28T23:33:56.569Z,101483.00
2022-07-28T23:36:26.172Z,101477.22
2022-07-28T23:38:53.910Z,101476.59
2022-07-28T23:41:20.302Z,101477.97
2022-07-28T23:43:46.704Z,101469.31
2022-07-28T23:46:13.173Z,101474.34
2022-07-28T23:48:39.649Z,101476.50
2022-07-28T23:51:06.037Z,101475.75
2022-07-28T23:53:32.456Z,101475.75
2022-07-28T23:55:58.873Z,101481.53
2022-07-28T23:58:25.280Z,101475.00
